Time;durP1;ratioP1;P1;durP2;ratioP2;P2;SDS_P1;SDS_P2;PMS_P1;PMS_P2;Temp;Humidity;BMP_temperature;BMP_pressure;BME280_temperature;BME280_humidity;BME280_pressure;Samples;Min_cycle;Max_cycle;Signal;HPM_P1;HPM_P2
2024/02/27 05:00:14;;;;;;;25.20;10.25;;;4.80;99.90;;;;;;6036060;23;21754;31
2024/02/27 05:02:40;;;;;;;19.27;8.30;;;4.70;99.90;;;;;;4951796;28;20228;-69
2024/02/27 05:05:07;;;;;;;22.33;8.60;;;4.70;99.90;;;;;;4953768;28;20244;-68
2024/02/27 05:07:34;;;;;;;19.58;9.70;;;4.70;99.90;;;;;;4954086;28;20215;-68
2024/02/27 05:10:01;;;;;;;12.50;6.88;;;4.60;99.90;;;;;;4955442;28;20294;-68
2024/02/27 05:12:28;;;;;;;12.52;7.47;;;4.60;99.90;;;;;;4947046;29;20233;-68
2024/02/27 05:14:54;;;;;;;22.33;9.70;;;4.60;99.90;;;;;;4949904;28;20209;-69
2024/02/27 05:17:22;;;;;;;18.95;9.52;;;4.60;99.90;;;;;;4945919;28;20317;-69
2024/02/27 05:19:49;;;;;;;20.05;9.65;;;4.60;99.90;;;;;;4948346;28;20209;-70
2024/02/27 05:22:16;;;;;;;22.35;10.50;;;4.60;99.90;;;;;;4952791;28;20782;-69
2024/02/27 05:24:43;;;;;;;18.65;8.82;;;4.60;99.90;;;;;;4945984;28;20647;-70
2024/02/27 05:27:10;;;;;;;13.02;6.63;;;4.60;99.90;;;;;;4945949;29;20213;-69
2024/02/27 05:29:37;;;;;;;14.43;7.03;;;4.60;99.90;;;;;;4953720;28;20691;-70
2024/02/27 05:32:04;;;;;;;19.10;11.50;;;4.60;99.90;;;;;;4951720;28;20317;-67
2024/02/27 05:34:33;;;;;;;20.50;7.88;;;4.60;99.90;;;;;;4953132;29;20205;-68
2024/02/27 05:36:59;;;;;;;15.02;7.70;;;4.60;99.90;;;;;;4952857;28;20538;-69
2024/02/27 05:39:26;;;;;;;20.33;8.40;;;4.60;99.90;;;;;;4981359;23;20236;-70
2024/02/27 05:41:54;;;;;;;15.30;9.20;;;4.60;99.90;;;;;;4987476;28;20296;-70
2024/02/27 05:44:21;;;;;;;18.77;9.45;;;4.50;99.90;;;;;;4994636;28;20218;-70
2024/02/27 05:46:47;;;;;;;11.00;7.32;;;4.50;99.90;;;;;;4981442;28;20209;-70
2024/02/27 05:49:15;;;;;;;10.73;5.32;;;4.40;99.90;;;;;;4982769;28;20236;-70
2024/02/27 05:51:43;;;;;;;13.55;6.93;;;4.40;99.90;;;;;;4968481;28;20722;-70
2024/02/27 05:54:10;;;;;;;12.48;6.82;;;4.30;99.90;;;;;;4962839;28;20213;-68
2024/02/27 05:56:37;;;;;;;13.85;7.80;;;4.30;99.90;;;;;;4963708;28;20576;-69
2024/02/27 05:59:03;;;;;;;15.43;6.78;;;4.30;99.90;;;;;;4965387;28;20240;-69
2024/02/27 06:01:31;;;;;;;9.10;5.55;;;4.20;99.90;;;;;;4966123;28;20215;-70
2024/02/27 06:03:58;;;;;;;11.50;7.18;;;4.20;99.90;;;;;;4965890;28;20215;-69
2024/02/27 06:06:24;;;;;;;12.85;8.27;;;4.20;99.90;;;;;;4952523;28;20220;-69
2024/02/27 06:08:52;;;;;;;10.75;5.47;;;4.20;99.90;;;;;;4973099;28;20239;-69
2024/02/27 06:11:19;;;;;;;18.27;8.60;;;4.20;99.90;;;;;;4964093;28;20655;-70
2024/02/27 06:13:46;;;;;;;10.52;6.40;;;4.20;99.90;;;;;;4967446;28;20211;-69
2024/02/27 06:16:12;;;;;;;18.50;7.60;;;4.10;99.90;;;;;;4966080;28;20217;-70
2024/02/27 06:18:42;;;;;;;13.90;7.88;;;4.10;99.90;;;;;;4964195;28;20234;-70
2024/02/27 06:23:55;;;;;;;22.13;8.68;;;4.10;99.90;;;;;;4953359;28;20266;-70
2024/02/27 06:26:21;;;;;;;14.48;6.65;;;4.10;99.90;;;;;;4966905;28;20222;-69
2024/02/27 06:28:48;;;;;;;16.73;8.65;;;4.10;99.90;;;;;;4961926;28;20232;-69
2024/02/27 06:31:15;;;;;;;18.88;11.40;;;4.10;99.90;;;;;;4953404;28;20211;-70
2024/02/27 06:33:42;;;;;;;11.65;7.13;;;4.10;99.90;;;;;;4951805;28;20212;-70
2024/02/27 06:36:08;;;;;;;11.82;7.20;;;4.10;99.90;;;;;;4952935;28;20217;-71
2024/02/27 06:38:35;;;;;;;15.25;7.28;;;4.10;99.90;;;;;;4950438;28;20237;-70
2024/02/27 06:41:03;;;;;;;19.42;8.95;;;4.00;99.90;;;;;;4952148;28;20228;-69
2024/02/27 06:43:30;;;;;;;13.02;7.75;;;4.10;99.90;;;;;;4953213;28;20212;-71
2024/02/27 06:45:57;;;;;;;13.88;7.97;;;4.10;99.90;;;;;;4953642;28;20572;-70
2024/02/27 06:48:23;;;;;;;14.45;6.78;;;4.10;99.90;;;;;;4949268;28;20239;-70
2024/02/27 06:50:54;;;;;;;19.20;10.48;;;4.10;99.90;;;;;;4952323;28;20236;-70
2024/02/27 06:53:21;;;;;;;14.73;5.82;;;4.10;99.90;;;;;;4950600;28;20268;-70
2024/02/27 06:55:49;;;;;;;15.70;8.98;;;4.10;99.90;;;;;;4953106;28;20212;-68
2024/02/27 06:58:17;;;;;;;13.23;7.13;;;4.10;99.90;;;;;;4953442;28;20225;-69
2024/02/27 07:00:44;;;;;;;9.25;7.15;;;4.10;99.90;;;;;;4949364;28;20742;-69
2024/02/27 07:03:10;;;;;;;12.18;7.88;;;4.20;99.90;;;;;;4953063;28;20221;-69
2024/02/27 07:05:37;;;;;;;14.05;10.55;;;4.20;99.90;;;;;;4959655;28;20209;-70
2024/02/27 07:08:05;;;;;;;12.43;8.02;;;4.10;99.90;;;;;;4953628;28;20308;-69
2024/02/27 07:10:32;;;;;;;17.63;7.53;;;4.20;99.90;;;;;;4953255;28;20215;-70
2024/02/27 07:12:58;;;;;;;12.65;7.65;;;4.20;99.90;;;;;;4948870;28;20244;-69
2024/02/27 07:15:26;;;;;;;13.60;5.70;;;4.20;99.90;;;;;;4953191;28;20209;-69
2024/02/27 07:17:53;;;;;;;11.25;8.40;;;4.20;99.90;;;;;;4947402;28;20229;-69
2024/02/27 07:20:20;;;;;;;13.23;7.20;;;4.20;99.90;;;;;;4951984;28;20243;-69
2024/02/27 07:22:48;;;;;;;11.13;6.60;;;4.20;99.90;;;;;;4950822;28;20226;-69
2024/02/27 07:25:15;;;;;;;14.38;6.68;;;4.20;99.90;;;;;;4953220;28;20220;-68
2024/02/27 07:27:41;;;;;;;11.77;6.72;;;4.20;99.90;;;;;;4953540;28;20212;-70
2024/02/27 07:30:09;;;;;;;21.08;7.55;;;4.30;99.90;;;;;;4950805;28;20727;-69
2024/02/27 07:32:38;;;;;;;8.43;5.53;;;4.30;99.90;;;;;;4951501;28;20258;-68
2024/02/27 07:35:05;;;;;;;11.45;8.45;;;4.30;99.90;;;;;;4945491;28;20300;-68
2024/02/27 07:37:32;;;;;;;17.90;7.13;;;4.30;99.90;;;;;;4952221;28;20291;-67
2024/02/27 07:39:59;;;;;;;9.77;7.18;;;4.40;99.90;;;;;;4951909;28;20232;-69
2024/02/27 07:42:25;;;;;;;12.70;5.03;;;4.30;99.90;;;;;;4952794;28;20311;-68
2024/02/27 07:44:52;;;;;;;6.75;5.18;;;4.30;99.90;;;;;;4952644;28;20206;-68
2024/02/27 07:47:19;;;;;;;17.50;9.10;;;4.40;99.90;;;;;;4949248;28;20209;-67
2024/02/27 07:49:48;;;;;;;6.30;4.80;;;4.40;99.90;;;;;;4946848;28;20541;-68
2024/02/27 07:52:15;;;;;;;14.27;6.60;;;4.40;99.90;;;;;;4949195;28;20239;-68
2024/02/27 07:54:42;;;;;;;16.90;7.10;;;4.40;99.90;;;;;;4951307;28;20313;-68
2024/02/27 07:57:09;;;;;;;8.75;5.15;;;4.40;99.90;;;;;;4947700;28;20311;-69
2024/02/27 07:59:37;;;;;;;14.75;6.30;;;4.50;99.90;;;;;;4951599;28;20236;-69
2024/02/27 08:02:04;;;;;;;16.17;6.90;;;4.50;99.90;;;;;;4948039;28;20297;-69
2024/02/27 08:04:31;;;;;;;13.38;7.68;;;4.50;99.90;;;;;;4949116;28;20223;-69
2024/02/27 08:06:59;;;;;;;13.65;8.00;;;4.50;99.90;;;;;;4950145;28;20245;-69
2024/02/27 08:09:26;;;;;;;11.25;8.35;;;4.50;99.90;;;;;;4956072;28;20221;-68
2024/02/27 08:11:53;;;;;;;10.88;7.97;;;4.50;99.90;;;;;;4956123;28;20260;-68
2024/02/27 08:14:20;;;;;;;12.82;8.00;;;4.50;99.90;;;;;;4952822;28;20228;-69
2024/02/27 08:16:47;;;;;;;6.72;5.65;;;4.50;99.90;;;;;;4953007;28;20264;-68
2024/02/27 08:19:14;;;;;;;15.88;6.80;;;4.50;99.90;;;;;;4954688;28;20233;-68
2024/02/27 08:21:40;;;;;;;11.82;7.45;;;4.40;99.90;;;;;;4955884;28;20205;-69
2024/02/27 08:24:12;;;;;;;7.60;4.97;;;4.50;99.90;;;;;;4957067;28;20208;-68
2024/02/27 08:26:38;;;;;;;10.32;5.65;;;4.40;99.90;;;;;;4955901;28;20209;-68
2024/02/27 08:29:05;;;;;;;11.93;6.53;;;4.40;99.90;;;;;;4955944;28;20235;-68
2024/02/27 08:31:32;;;;;;;8.80;5.45;;;4.50;99.90;;;;;;4956246;28;20207;-68
2024/02/27 08:33:58;;;;;;;11.82;5.70;;;4.40;99.90;;;;;;4956948;28;20212;-68
2024/02/27 08:36:26;;;;;;;12.52;9.10;;;4.50;99.90;;;;;;4954767;28;20209;-69
2024/02/27 08:38:52;;;;;;;12.10;7.20;;;4.40;99.90;;;;;;4948881;28;20248;-68
2024/02/27 08:41:21;;;;;;;10.63;6.30;;;4.40;99.90;;;;;;4954595;28;20212;-69
2024/02/27 08:43:49;;;;;;;14.80;6.57;;;4.50;99.90;;;;;;4956998;28;20205;-68
2024/02/27 08:46:17;;;;;;;10.23;5.95;;;4.50;99.90;;;;;;4959343;28;20312;-69
2024/02/27 08:48:44;;;;;;;23.52;7.57;;;4.50;99.90;;;;;;4952756;28;20224;-69
2024/02/27 08:51:11;;;;;;;8.18;7.15;;;4.50;99.90;;;;;;4954568;28;20216;-69
2024/02/27 08:53:37;;;;;;;6.85;6.07;;;4.60;99.90;;;;;;4956249;28;20200;-68
2024/02/27 08:56:06;;;;;;;10.10;6.78;;;4.60;99.90;;;;;;4957636;28;20210;-70
2024/02/27 08:58:34;;;;;;;17.50;6.97;;;4.60;99.90;;;;;;4957948;28;20287;-68
2024/02/27 09:01:01;;;;;;;15.88;7.47;;;4.60;99.90;;;;;;4956864;28;20315;-68
2024/02/27 09:03:28;;;;;;;16.52;7.32;;;4.60;99.90;;;;;;4958419;28;20737;-70
2024/02/27 09:05:55;;;;;;;9.98;6.25;;;4.70;99.90;;;;;;4950807;28;20304;-68
2024/02/27 09:08:22;;;;;;;9.57;5.70;;;4.70;99.90;;;;;;4951487;28;20269;-68
2024/02/27 09:10:49;;;;;;;13.45;9.77;;;4.60;99.90;;;;;;4953370;28;20625;-68
2024/02/27 09:13:16;;;;;;;15.15;6.75;;;4.70;99.90;;;;;;4957440;28;20216;-68
2024/02/27 09:15:44;;;;;;;5.50;3.28;;;4.70;99.90;;;;;;4954525;28;20216;-68
2024/02/27 09:18:10;;;;;;;9.95;5.88;;;4.70;99.90;;;;;;4952442;28;20240;-68
2024/02/27 09:20:39;;;;;;;11.60;6.03;;;4.60;99.90;;;;;;4949588;28;20224;-69
2024/02/27 09:23:06;;;;;;;10.38;5.93;;;4.60;99.90;;;;;;4954438;28;20209;-69
2024/02/27 09:25:32;;;;;;;3.17;2.88;;;4.60;99.90;;;;;;4953308;28;20566;-69
2024/02/27 09:27:59;;;;;;;6.53;4.90;;;4.60;99.90;;;;;;4945643;28;20209;-69
2024/02/27 09:30:26;;;;;;;14.25;7.05;;;4.60;99.90;;;;;;4953071;28;20580;-69
2024/02/27 09:32:54;;;;;;;10.80;5.85;;;4.70;99.90;;;;;;4957155;28;20201;-69
2024/02/27 09:35:21;;;;;;;8.30;6.95;;;4.70;99.90;;;;;;4957548;28;20292;-69
2024/02/27 09:37:47;;;;;;;20.08;7.80;;;4.80;99.90;;;;;;4945935;28;20217;-68
2024/02/27 09:40:14;;;;;;;13.23;5.35;;;4.80;99.90;;;;;;4951287;28;20264;-68
2024/02/27 09:42:41;;;;;;;8.15;5.32;;;4.80;99.90;;;;;;4956977;28;20215;-68
2024/02/27 09:45:09;;;;;;;11.48;6.38;;;4.90;99.90;;;;;;4954076;28;20216;-68
2024/02/27 09:47:39;;;;;;;16.98;5.35;;;4.90;99.90;;;;;;4956671;28;20684;-68
2024/02/27 09:50:09;;;;;;;10.88;6.18;;;5.00;99.90;;;;;;4950784;28;20319;-68
2024/02/27 09:52:37;;;;;;;9.65;6.07;;;5.00;99.90;;;;;;4954683;28;20229;-68
2024/02/27 09:55:05;;;;;;;8.18;6.15;;;5.00;99.90;;;;;;4954690;28;20216;-68
2024/02/27 09:57:33;;;;;;;5.13;4.50;;;5.00;99.90;;;;;;4958104;28;20209;-68
2024/02/27 10:00:00;;;;;;;8.65;4.90;;;5.10;99.90;;;;;;4953868;28;20233;-69
2024/02/27 10:02:26;;;;;;;10.57;5.88;;;5.10;99.90;;;;;;4951407;28;20209;-68
2024/02/27 10:04:57;;;;;;;12.98;5.85;;;5.10;99.90;;;;;;4954533;28;20579;-67
2024/02/27 10:07:27;;;;;;;13.27;7.68;;;5.10;99.90;;;;;;4949420;28;20212;-68
2024/02/27 10:09:54;;;;;;;12.30;6.40;;;5.20;99.90;;;;;;4956573;28;20217;-68
2024/02/27 10:12:21;;;;;;;11.68;6.68;;;5.20;99.90;;;;;;4952802;28;20711;-67
2024/02/27 10:14:48;;;;;;;8.13;5.93;;;5.30;99.90;;;;;;4951525;28;20367;-68
2024/02/27 10:17:15;;;;;;;14.98;7.35;;;5.20;99.90;;;;;;4952362;28;20295;-68
2024/02/27 10:19:42;;;;;;;14.95;7.20;;;5.20;99.90;;;;;;4952267;28;20229;-68
2024/02/27 10:22:09;;;;;;;13.70;6.10;;;5.20;99.90;;;;;;4944033;28;20209;-68
2024/02/27 10:24:37;;;;;;;8.13;5.93;;;5.20;99.90;;;;;;4957079;28;20208;-68
2024/02/27 10:27:07;;;;;;;7.93;6.68;;;5.20;99.90;;;;;;4957137;28;20209;-68
2024/02/27 10:29:34;;;;;;;11.02;6.43;;;5.20;99.90;;;;;;4952632;28;20232;-69
2024/02/27 10:32:02;;;;;;;7.30;5.60;;;5.10;99.90;;;;;;4956533;28;20209;-68
2024/02/27 10:34:30;;;;;;;7.45;6.68;;;5.10;99.90;;;;;;4952934;28;20223;-68
2024/02/27 10:36:58;;;;;;;7.25;4.68;;;5.20;99.90;;;;;;4956519;28;20213;-68
2024/02/27 10:39:25;;;;;;;11.23;6.88;;;5.30;99.90;;;;;;4957571;28;20232;-68
2024/02/27 10:41:54;;;;;;;10.45;5.90;;;5.40;99.90;;;;;;4948748;28;20218;-68
2024/02/27 10:44:21;;;;;;;11.23;6.00;;;5.40;99.90;;;;;;4956671;28;20232;-68
2024/02/27 10:46:48;;;;;;;7.47;5.80;;;5.40;99.90;;;;;;4950657;28;20216;-67
2024/02/27 10:49:16;;;;;;;9.70;5.68;;;5.40;99.90;;;;;;4950429;28;20221;-67
2024/02/27 10:51:43;;;;;;;5.03;4.13;;;5.50;99.90;;;;;;4957659;28;20659;-68
2024/02/27 10:54:10;;;;;;;9.10;4.78;;;5.50;99.90;;;;;;4957364;28;20220;-68
2024/02/27 10:56:37;;;;;;;6.63;4.28;;;4.60;99.90;;;;;;4954187;28;20597;-68
2024/02/27 10:59:06;;;;;;;10.40;5.97;;;5.50;99.90;;;;;;4957059;28;20698;-68
2024/02/27 11:01:33;;;;;;;9.45;5.75;;;5.50;99.90;;;;;;4957644;28;20659;-68
2024/02/27 11:04:05;;;;;;;11.70;6.15;;;5.50;99.90;;;;;;4953364;28;20209;-68
2024/02/27 11:06:33;;;;;;;6.93;5.72;;;5.60;99.90;;;;;;4960796;28;20257;-68
2024/02/27 11:09:03;;;;;;;9.50;6.65;;;5.60;99.90;;;;;;4956505;28;20233;-68
2024/02/27 11:11:31;;;;;;;6.63;4.63;;;5.60;99.90;;;;;;4958071;28;20291;-68
2024/02/27 11:14:01;;;;;;;10.25;5.93;;;5.60;99.90;;;;;;4957216;28;20205;-68
2024/02/27 11:16:32;;;;;;;8.30;5.47;;;6.00;99.90;;;;;;4958403;28;20209;-68
2024/02/27 11:19:05;;;;;;;9.27;5.95;;;5.80;99.90;;;;;;4956450;28;20238;-68
2024/02/27 11:21:31;;;;;;;5.63;5.00;;;5.60;99.90;;;;;;4958256;28;20223;-67
2024/02/27 11:23:58;;;;;;;16.40;6.40;;;5.70;99.90;;;;;;4955489;28;20205;-68
2024/02/27 11:26:26;;;;;;;8.60;6.07;;;5.80;99.90;;;;;;4958725;28;20209;-67
2024/02/27 11:28:53;;;;;;;11.20;7.00;;;5.80;99.90;;;;;;4951768;28;20717;-67
2024/02/27 11:31:21;;;;;;;10.38;6.90;;;5.90;99.90;;;;;;4956740;28;20201;-67
2024/02/27 11:33:51;;;;;;;9.82;6.43;;;5.90;99.90;;;;;;4958192;28;20213;-68
2024/02/27 11:36:18;;;;;;;9.48;6.18;;;6.00;99.90;;;;;;4958344;28;20226;-68
2024/02/27 11:38:47;;;;;;;7.35;5.93;;;6.00;99.90;;;;;;4949917;28;20230;-68
2024/02/27 11:41:17;;;;;;;11.27;6.32;;;5.90;99.90;;;;;;4950807;28;20209;-68
2024/02/27 11:43:46;;;;;;;7.60;6.35;;;5.90;99.90;;;;;;4952173;28;20249;-67
2024/02/27 11:46:35;;;;;;;7.60;5.18;;;5.90;99.90;;;;;;4944945;28;20205;-67
2024/02/27 11:49:04;;;;;;;11.50;6.35;;;6.00;99.90;;;;;;4954234;28;20591;-68
2024/02/27 11:51:32;;;;;;;9.80;5.57;;;6.00;99.90;;;;;;4952858;28;20218;-68
2024/02/27 11:53:59;;;;;;;5.28;4.70;;;6.10;99.90;;;;;;4951373;28;20253;-68
2024/02/27 11:56:26;;;;;;;11.13;6.70;;;6.10;99.90;;;;;;4959367;28;20298;-67
2024/02/27 11:58:54;;;;;;;10.27;6.68;;;6.10;99.90;;;;;;4954157;28;20225;-68
2024/02/27 12:01:22;;;;;;;8.25;6.68;;;6.10;99.90;;;;;;4956794;28;20218;-68
2024/02/27 12:03:49;;;;;;;6.18;5.05;;;6.20;99.90;;;;;;4959118;28;20210;-68
2024/02/27 12:06:17;;;;;;;8.20;5.00;;;6.20;99.90;;;;;;4957436;28;20221;-67
2024/02/27 12:08:48;;;;;;;11.77;6.10;;;6.20;99.90;;;;;;4948196;28;20228;-68
2024/02/27 12:11:16;;;;;;;7.97;5.03;;;6.30;99.90;;;;;;4953836;28;20240;-67
2024/02/27 12:13:45;;;;;;;15.32;6.50;;;6.20;99.90;;;;;;4955691;28;20260;-67
2024/02/27 12:16:21;;;;;;;11.45;6.05;;;6.30;99.90;;;;;;4956264;28;20637;-67
2024/02/27 12:18:48;;;;;;;11.65;7.60;;;6.30;99.90;;;;;;4957805;28;20740;-67
2024/02/27 12:21:26;;;;;;;8.77;5.97;;;6.40;99.90;;;;;;4957154;28;20689;-67
2024/02/27 12:24:08;;;;;;;9.70;6.38;;;6.30;99.90;;;;;;4952559;28;20211;-69
2024/02/27 12:26:34;;;;;;;10.32;6.70;;;6.40;99.90;;;;;;4949653;28;20226;-68
2024/02/27 12:29:01;;;;;;;11.27;6.22;;;6.40;99.90;;;;;;4954842;28;20248;-68
2024/02/27 12:31:31;;;;;;;8.63;6.22;;;6.40;99.90;;;;;;4950973;28;20215;-68
2024/02/27 12:33:58;;;;;;;6.55;5.10;;;6.40;99.90;;;;;;4947397;28;20294;-68
2024/02/27 12:36:26;;;;;;;7.40;6.25;;;6.50;99.90;;;;;;4958481;28;20592;-68
2024/02/27 12:38:54;;;;;;;11.00;6.25;;;6.50;99.90;;;;;;4955131;28;20329;-68
2024/02/27 12:41:22;;;;;;;9.98;6.78;;;6.40;99.90;;;;;;4956677;28;20380;-67
2024/02/27 12:43:49;;;;;;;10.38;6.30;;;6.40;99.90;;;;;;4951613;28;20213;-68
2024/02/27 12:46:17;;;;;;;8.00;6.20;;;6.40;99.90;;;;;;4954377;28;20210;-68
2024/02/27 12:48:44;;;;;;;6.68;6.07;;;6.40;99.90;;;;;;4957100;28;20245;-68
2024/02/27 12:51:13;;;;;;;8.57;6.13;;;6.40;99.90;;;;;;4953482;28;20225;-68
2024/02/27 12:53:42;;;;;;;7.32;5.30;;;6.40;99.90;;;;;;4952513;28;20212;-68
2024/02/27 12:56:10;;;;;;;10.02;7.63;;;6.60;99.90;;;;;;4960872;28;20246;-68
2024/02/27 12:58:37;;;;;;;10.25;5.43;;;6.60;99.90;;;;;;4959625;28;20233;-68
2024/02/27 13:01:06;;;;;;;8.50;7.45;;;6.70;99.90;;;;;;4955728;28;20226;-68
2024/02/27 13:03:35;;;;;;;10.43;5.95;;;6.70;99.90;;;;;;4955962;28;20236;-68
2024/02/27 13:06:03;;;;;;;9.25;5.50;;;6.70;99.90;;;;;;4960532;28;20234;-68
2024/02/27 13:08:30;;;;;;;6.10;5.47;;;6.80;99.90;;;;;;4956643;28;20652;-69
2024/02/27 13:10:58;;;;;;;8.43;6.20;;;6.80;99.90;;;;;;4962572;28;20212;-69
2024/02/27 13:13:31;;;;;;;15.05;5.53;;;6.90;99.90;;;;;;4958092;28;20242;-69
2024/02/27 13:15:59;;;;;;;9.43;5.55;;;6.90;99.90;;;;;;4958619;28;20239;-68
2024/02/27 13:18:26;;;;;;;5.60;5.10;;;6.90;99.90;;;;;;4962665;28;20697;-69
2024/02/27 13:20:53;;;;;;;8.13;5.53;;;6.90;99.90;;;;;;4960005;28;20246;-69
2024/02/27 13:23:20;;;;;;;7.60;6.63;;;6.90;99.90;;;;;;4960847;28;20205;-69
2024/02/27 13:25:49;;;;;;;8.63;5.50;;;7.00;99.90;;;;;;4953098;28;20254;-69
2024/02/27 13:28:17;;;;;;;7.95;5.68;;;7.00;99.90;;;;;;4954728;28;20679;-69
2024/02/27 13:30:44;;;;;;;10.82;7.03;;;7.00;99.90;;;;;;4960185;28;20217;-68
2024/02/27 13:33:10;;;;;;;8.70;6.03;;;6.90;99.90;;;;;;4957404;28;20216;-68
2024/02/27 13:35:37;;;;;;;7.18;4.78;;;6.80;99.90;;;;;;4956390;28;20207;-68
2024/02/27 13:38:04;;;;;;;8.10;6.72;;;6.80;99.90;;;;;;4960010;28;20214;-67
2024/02/27 13:40:31;;;;;;;6.93;5.03;;;6.80;99.90;;;;;;4960500;28;20244;-68
2024/02/27 13:42:57;;;;;;;8.00;5.82;;;6.90;99.90;;;;;;4958859;28;20210;-68
2024/02/27 13:45:25;;;;;;;8.27;6.30;;;6.80;99.90;;;;;;4955924;28;20276;-68
2024/02/27 13:47:52;;;;;;;7.20;6.50;;;6.80;99.90;;;;;;4960681;28;20207;-68
2024/02/27 13:50:19;;;;;;;11.05;5.57;;;6.80;99.90;;;;;;4954099;28;20979;-68
2024/02/27 13:52:46;;;;;;;6.53;5.72;;;6.80;99.90;;;;;;4960853;28;20207;-68
2024/02/27 13:55:12;;;;;;;7.35;5.80;;;6.80;99.90;;;;;;4947321;28;20222;-68
2024/02/27 13:57:39;;;;;;;6.10;5.30;;;6.90;99.90;;;;;;4959830;28;20206;-68
2024/02/27 14:00:07;;;;;;;8.50;7.03;;;6.90;99.90;;;;;;4958534;28;20745;-70
2024/02/27 14:02:35;;;;;;;8.40;5.85;;;6.90;99.90;;;;;;4963852;28;20202;-69
2024/02/27 14:05:02;;;;;;;7.85;6.18;;;7.00;99.90;;;;;;4955566;28;20686;-69
2024/02/27 14:07:29;;;;;;;6.57;5.20;;;7.10;99.90;;;;;;4956367;28;20211;-68
2024/02/27 14:09:56;;;;;;;5.60;5.10;;;7.10;99.90;;;;;;4955500;28;20234;-69
2024/02/27 14:12:23;;;;;;;7.28;5.00;;;7.10;99.90;;;;;;4954317;28;20642;-68
2024/02/27 14:14:50;;;;;;;9.25;5.95;;;7.20;99.90;;;;;;4963379;28;20583;-70
2024/02/27 14:17:16;;;;;;;7.75;5.60;;;7.10;99.90;;;;;;4959844;28;20299;-69
2024/02/27 14:19:44;;;;;;;5.20;4.70;;;7.10;99.90;;;;;;4963128;28;20240;-68
2024/02/27 14:22:11;;;;;;;8.65;5.22;;;7.20;99.90;;;;;;4952921;28;20216;-69
2024/02/27 14:24:38;;;;;;;6.47;4.95;;;7.10;99.90;;;;;;4953856;28;20705;-69
2024/02/27 14:27:04;;;;;;;5.38;4.82;;;7.00;99.90;;;;;;4956404;28;20218;-67
2024/02/27 14:29:31;;;;;;;9.25;5.80;;;7.00;99.90;;;;;;4963151;28;20230;-69
2024/02/27 14:31:58;;;;;;;6.03;4.72;;;6.90;99.90;;;;;;4961474;28;20214;-68
2024/02/27 14:34:25;;;;;;;6.63;4.97;;;6.90;99.90;;;;;;4961293;28;20209;-67
2024/02/27 14:36:53;;;;;;;8.07;5.88;;;6.90;99.90;;;;;;4959738;28;20217;-68
2024/02/27 14:39:25;;;;;;;7.80;5.05;;;6.80;99.90;;;;;;4956915;28;20252;-68
2024/02/27 14:41:52;;;;;;;6.32;5.05;;;6.70;99.90;;;;;;4959621;28;20212;-69
2024/02/27 14:44:18;;;;;;;8.55;5.60;;;6.60;99.90;;;;;;4959906;28;20217;-69
2024/02/27 14:46:47;;;;;;;5.35;4.85;;;6.50;99.90;;;;;;4960105;28;20589;-69
2024/02/27 14:49:14;;;;;;;6.18;5.57;;;6.50;99.90;;;;;;4957243;28;20307;-69
2024/02/27 14:51:42;;;;;;;6.38;5.07;;;6.50;99.90;;;;;;4950435;28;20214;-68
2024/02/27 14:54:10;;;;;;;7.00;6.15;;;6.60;99.90;;;;;;4959382;28;20222;-69
2024/02/27 14:56:38;;;;;;;6.53;4.88;;;6.60;99.90;;;;;;4952363;28;20206;-68
2024/02/27 14:59:05;;;;;;;7.55;4.78;;;6.70;99.90;;;;;;4959652;28;20311;-68
2024/02/27 15:01:31;;;;;;;5.82;5.28;;;6.70;99.90;;;;;;4955161;28;20233;-68
2024/02/27 15:03:58;;;;;;;8.30;5.03;;;6.70;99.90;;;;;;4948765;28;20212;-69
2024/02/27 15:06:25;;;;;;;5.57;4.97;;;6.60;99.90;;;;;;4961950;28;20210;-68
2024/02/27 15:08:52;;;;;;;7.85;5.30;;;6.50;99.90;;;;;;4948106;28;20233;-68
2024/02/27 15:11:20;;;;;;;6.47;5.28;;;6.50;99.90;;;;;;4955904;28;20206;-68
2024/02/27 15:13:46;;;;;;;6.03;5.45;;;6.40;99.90;;;;;;4964161;28;20219;-69
2024/02/27 15:16:13;;;;;;;6.80;5.30;;;6.30;99.90;;;;;;4949165;28;20221;-68
2024/02/27 15:18:40;;;;;;;5.03;3.92;;;6.30;99.90;;;;;;4957021;28;20316;-68
2024/02/27 15:21:07;;;;;;;4.60;4.28;;;6.30;99.90;;;;;;4960292;28;20224;-69
2024/02/27 15:23:34;;;;;;;8.95;5.10;;;6.40;99.90;;;;;;4960032;28;20217;-69
2024/02/27 15:26:01;;;;;;;6.45;5.75;;;6.50;99.90;;;;;;4948245;28;20218;-69
2024/02/27 15:28:29;;;;;;;6.72;4.13;;;6.50;99.90;;;;;;4958440;28;20621;-68
2024/02/27 15:30:55;;;;;;;5.93;5.15;;;6.50;99.90;;;;;;4961105;28;20201;-68
2024/02/27 15:33:22;;;;;;;8.27;5.78;;;6.60;99.90;;;;;;4948190;28;20564;-67
2024/02/27 15:35:49;;;;;;;7.25;4.95;;;6.50;99.90;;;;;;4957160;28;20205;-68
2024/02/27 15:38:15;;;;;;;5.68;5.13;;;6.50;99.90;;;;;;4959901;28;20218;-68
2024/02/27 15:40:42;;;;;;;5.57;5.07;;;6.50;99.90;;;;;;4961538;28;20252;-69
2024/02/27 15:43:12;;;;;;;7.50;6.13;;;6.40;99.90;;;;;;4959342;28;20565;-69
2024/02/27 15:45:40;;;;;;;6.63;5.45;;;6.40;99.90;;;;;;4956372;28;20206;-69
2024/02/27 15:48:08;;;;;;;6.00;5.20;;;6.40;99.90;;;;;;4958797;28;20209;-70
2024/02/27 15:50:35;;;;;;;11.38;6.47;;;6.30;99.90;;;;;;4957640;28;20227;-69
2024/02/27 15:53:01;;;;;;;6.13;5.47;;;6.30;99.90;;;;;;4963046;28;20208;-69
2024/02/27 15:55:28;;;;;;;9.30;6.05;;;6.30;99.90;;;;;;4959787;28;20224;-69
2024/02/27 15:57:55;;;;;;;11.13;7.18;;;6.30;99.90;;;;;;4946007;28;20380;-68
2024/02/27 16:00:22;;;;;;;7.65;6.50;;;6.30;99.90;;;;;;4956825;28;20238;-68
2024/02/27 16:02:51;;;;;;;11.35;7.75;;;6.30;99.90;;;;;;4966677;28;20217;-69
2024/02/27 16:05:24;;;;;;;7.60;4.97;;;6.20;99.90;;;;;;4959845;28;20301;-67
2024/02/27 16:07:51;;;;;;;13.50;7.10;;;6.20;99.90;;;;;;4959277;28;20205;-68
2024/02/27 16:10:18;;;;;;;10.75;5.50;;;6.10;99.90;;;;;;4963995;28;20217;-68
2024/02/27 16:12:45;;;;;;;10.07;6.22;;;6.00;99.90;;;;;;4968449;28;20304;-68
2024/02/27 16:15:11;;;;;;;6.80;5.45;;;6.00;99.90;;;;;;4960710;28;20257;-68
2024/02/27 16:17:39;;;;;;;9.30;5.57;;;5.90;99.90;;;;;;4953379;28;20212;-68
2024/02/27 16:20:08;;;;;;;8.13;5.05;;;5.90;99.90;;;;;;4949478;28;20228;-68
2024/02/27 16:22:36;;;;;;;8.30;6.38;;;5.90;99.90;;;;;;4951434;28;20231;-68
2024/02/27 16:25:03;;;;;;;7.85;5.50;;;5.80;99.90;;;;;;4959857;28;20255;-69
2024/02/27 16:27:30;;;;;;;6.57;4.80;;;5.80;99.90;;;;;;4960465;28;20216;-68
2024/02/27 16:29:57;;;;;;;10.70;8.32;;;5.70;99.90;;;;;;4957903;28;20224;-68
2024/02/27 16:32:24;;;;;;;8.65;6.40;;;5.70;99.90;;;;;;4956878;28;20367;-68
2024/02/27 16:34:50;;;;;;;7.95;5.63;;;5.70;99.90;;;;;;4960530;28;20205;-68
2024/02/27 16:37:18;;;;;;;6.00;4.78;;;5.60;99.90;;;;;;4964753;28;20217;-68
2024/02/27 16:39:45;;;;;;;7.35;4.93;;;5.60;99.90;;;;;;4954074;28;20698;-68
2024/02/27 16:42:16;;;;;;;6.50;5.55;;;5.60;99.90;;;;;;4960389;28;20225;-68
2024/02/27 16:44:43;;;;;;;4.93;3.58;;;5.60;99.90;;;;;;4948535;28;20680;-68
2024/02/27 16:47:10;;;;;;;6.45;5.20;;;5.60;99.90;;;;;;4952957;28;20303;-69
2024/02/27 16:49:36;;;;;;;6.45;4.82;;;5.50;99.90;;;;;;4941330;28;20356;-69
2024/02/27 16:52:03;;;;;;;6.35;4.30;;;5.60;99.90;;;;;;4946939;28;20205;-69
2024/02/27 16:54:31;;;;;;;8.07;5.95;;;5.50;99.90;;;;;;4954031;28;20205;-67
2024/02/27 16:56:58;;;;;;;7.95;6.63;;;5.50;99.90;;;;;;4956648;28;20213;-69
2024/02/27 16:59:25;;;;;;;10.55;5.72;;;5.50;99.90;;;;;;4963123;28;20225;-67
2024/02/27 17:01:52;;;;;;;5.70;5.18;;;5.50;99.90;;;;;;4966165;28;20717;-67
2024/02/27 17:04:18;;;;;;;7.15;5.22;;;5.50;99.90;;;;;;4959909;28;20212;-67
2024/02/27 17:06:45;;;;;;;11.00;5.25;;;5.40;99.90;;;;;;4958663;28;20205;-68
2024/02/27 17:09:12;;;;;;;7.47;5.07;;;5.40;99.90;;;;;;4950620;28;20303;-68
2024/02/27 17:11:40;;;;;;;5.72;4.95;;;5.40;99.90;;;;;;4957488;28;20228;-68
2024/02/27 17:14:07;;;;;;;10.80;5.50;;;5.40;99.90;;;;;;4962593;28;20671;-68
2024/02/27 17:16:34;;;;;;;5.97;5.03;;;5.40;99.90;;;;;;4966882;28;20219;-68
2024/02/27 17:19:01;;;;;;;5.88;4.65;;;5.40;99.90;;;;;;4962176;28;20861;-68
2024/02/27 17:21:27;;;;;;;6.18;5.10;;;5.40;99.90;;;;;;4960927;28;20228;-68
2024/02/27 17:23:54;;;;;;;7.05;4.75;;;5.30;99.90;;;;;;4963734;28;20213;-68
2024/02/27 17:26:21;;;;;;;5.63;4.47;;;5.30;99.90;;;;;;4958212;28;20209;-68
2024/02/27 17:28:49;;;;;;;6.30;5.35;;;5.30;99.90;;;;;;4959706;28;20221;-69
2024/02/27 17:31:15;;;;;;;5.47;4.55;;;5.30;99.90;;;;;;4963441;28;20225;-68
2024/02/27 17:33:42;;;;;;;7.30;4.90;;;5.30;99.90;;;;;;4964306;28;20550;-68
2024/02/27 17:36:11;;;;;;;6.35;5.75;;;5.30;99.90;;;;;;4963240;28;20212;-68
2024/02/27 17:38:37;;;;;;;6.72;5.10;;;5.20;99.90;;;;;;4965998;28;20302;-68
2024/02/27 17:41:04;;;;;;;5.50;5.05;;;5.20;99.90;;;;;;4958935;28;20240;-68
2024/02/27 17:43:31;;;;;;;5.50;4.50;;;5.30;99.90;;;;;;4953893;28;20228;-68
2024/02/27 17:45:59;;;;;;;5.85;5.20;;;5.30;99.90;;;;;;4949561;28;20773;-69
2024/02/27 17:48:26;;;;;;;5.28;4.28;;;5.20;99.90;;;;;;4956644;28;20217;-69
2024/02/27 17:50:53;;;;;;;7.60;5.05;;;5.30;99.90;;;;;;4962650;28;20196;-69
2024/02/27 17:53:19;;;;;;;6.47;5.88;;;5.30;99.90;;;;;;4963408;28;20212;-68
2024/02/27 17:55:46;;;;;;;8.13;6.25;;;5.20;99.90;;;;;;4960032;28;20209;-68